Aeroporto :
LOGIN :

Iscrizione | Disclaimer

   EN    FR    IT 

 










Sommario :    VFR   VFR Marginale   IFR   IFR Intensivo   IFR Molto Intensivo
Visibilità : 
Base nubi : 
>= 8 km
>= 3000ft
5 / 8 km
1000 / 3000 ft
1500m / 5 km
500 / 1000 ft
800 / 1500m
200 / 500 ft
< 800m
< 200 ft
Simboli :   Temporali  Nebbia  Neve Forte  Precipitazioni Forti  Vento > 20 kt
SIGMETs :   Varie  Temporali  Ghiacco  Turbolenza  Onda orograficha  Ceneri Vulcaniche






- Altitudine del aeroporto : 187 ft


ETNW - Wunstorf AB

ULTIMO METAR :
  • 260520Z 21003KT 3700 BR BKN002 01/01 Q1018 AMB

METARs OBSOLETI :
  • 260505Z 20004KT 3000 BR BKN002 01/01 Q1018 AMB
  • 260430Z 22005KT 2700 BR BKN001 01/01 Q1018 RED
  • 260420Z 22004KT 1500 -DZ BR BKN001 01/01 Q1018 RED
  • 260320Z 22004KT 1500 -DZ BR BKN002 01/01 Q1018 AMB
  • 260220Z 22004KT 2000 -DZ BR SCT001 BKN003 01/00 Q1019 YLO

TAF AMD TAF ETNW
Valido dal 26 a 03 ore il 27 a 00 ore UTC


260348Z 2603/2624 21008KT 4000 BR SCT003 BKN005
TEMPO 2603/2608 18005KT 1000 -DZ BKN001
BECMG 2608/2610 17005KT 7000 NSW FEW005
BECMG 2610/2612 17008KT 9999 NSW FEW020
TEMPO 2620/2624 18008KT 6000 NSW SCT020 BY ETGL



MetMap, La meteo Aeronautica in un colpo d'occhio ! - Copyright ORBIFLY Dicembre 2007 - Disclaimer

ORBIFLY MET'MAP TEAM :

Programmazione e sviluppo : Alexandra Zaïnal
Concezione : Baudouin d'Aumeries
Aiuto per la programmazione : Marc-Olivier Méhu
Supporto tecnico e logistico : Manuel Goepfert
Aiuto per la traduzione : Arnaldo La Scala

Contatto : metmap@orbifly.com




FONTI E CREDITI :

   NOAA